Truxton, New York
Current Conditions -  °F | °C
As of 8:35 PM on Friday 24 Oct 2014 (Local Time) from KN03 Reporting Station
Clear Clear  
Wind Chill: 46°   Ceiling: Unl
Heat Index: 46°   Visibility: 10mi
Dew Point: 37°   Wind: 0mph
Humidity: 71%   Direction: NA
Pressure: 29.93"   Gusts: NA
Location:  42.71°N, 76.03°W
Report Text: KN03 250035Z AUTO 00000KT 10SM CLR 08/03 A2993 RMK AO2
Loading
Personal Weather Stations






























Interactive Weather Map
Tropical Storm Tracking
New forecast layout! Learn more

10-Day Weather Forecast

Advertisements
Track Severe Weather on mobile